Time;durP1;ratioP1;P1;durP2;ratioP2;P2;SDS_P1;SDS_P2;PMS_P1;PMS_P2;Temp;Humidity;BMP_temperature;BMP_pressure;BME280_temperature;BME280_humidity;BME280_pressure;Samples;Min_cycle;Max_cycle;Signal;HPM_P1;HPM_P2
2022/05/27 03:01:31;;;;;;;0.80;0.60;;;15.30;76.00;;;;;;5669720;23;20501;-67
2022/05/27 03:03:57;;;;;;;0.70;0.60;;;15.30;76.00;;;;;;4974569;28;20446;-68
2022/05/27 03:06:36;;;;;;;0.70;0.60;;;15.40;75.80;;;;;;4974626;28;20441;-68
2022/05/27 03:09:09;;;;;;;0.70;0.60;;;15.30;75.70;;;;;;4974298;28;20848;-68
2022/05/27 03:11:48;;;;;;;0.70;0.60;;;15.20;76.10;;;;;;4974522;28;20470;-68
2022/05/27 03:14:33;;;;;;;0.70;0.60;;;14.90;77.00;;;;;;4975674;28;20455;-69
2022/05/27 03:17:16;;;;;;;0.90;0.70;;;15.10;77.00;;;;;;4974463;28;20542;-67
2022/05/27 03:19:56;;;;;;;0.70;0.60;;;15.20;76.50;;;;;;4974065;28;20866;-67
2022/05/27 03:22:44;;;;;;;0.90;0.60;;;15.20;76.20;;;;;;4974218;28;20465;-68
2022/05/27 03:25:19;;;;;;;0.70;0.70;;;15.30;76.30;;;;;;4974358;28;20554;-68
2022/05/27 03:27:53;;;;;;;0.70;0.60;;;15.10;76.60;;;;;;4974198;28;20434;-67
2022/05/27 03:30:23;;;;;;;0.67;0.50;;;14.90;77.30;;;;;;4974030;28;20489;-68
2022/05/27 03:32:58;;;;;;;0.70;0.60;;;15.00;77.40;;;;;;4974220;28;20449;-67
2022/05/27 03:35:31;;;;;;;0.70;0.60;;;15.10;76.90;;;;;;4974289;28;20529;-68
2022/05/27 03:38:04;;;;;;;0.70;0.50;;;15.10;76.60;;;;;;4974824;28;20434;-68
2022/05/27 03:40:36;;;;;;;0.70;0.50;;;15.20;76.50;;;;;;4973732;28;20977;-69
2022/05/27 03:43:03;;;;;;;0.63;0.50;;;15.10;76.80;;;;;;4974067;28;20431;-69
2022/05/27 03:45:30;;;;;;;0.70;0.60;;;15.20;76.60;;;;;;4974429;28;20453;-68
2022/05/27 03:47:58;;;;;;;0.70;0.50;;;15.20;76.40;;;;;;4973903;28;20450;-68
2022/05/27 03:50:27;;;;;;;0.70;0.60;;;15.10;77.00;;;;;;4973724;28;20450;-68
2022/05/27 03:52:56;;;;;;;0.67;0.50;;;15.20;76.70;;;;;;4973903;28;20497;-67
2022/05/27 03:55:25;;;;;;;0.70;0.50;;;15.10;76.80;;;;;;4973888;28;20795;-68
2022/05/27 03:57:52;;;;;;;0.70;0.60;;;15.10;77.00;;;;;;4973785;28;20450;-68
2022/05/27 04:00:20;;;;;;;0.70;0.50;;;15.20;76.70;;;;;;4973475;28;20937;-68
2022/05/27 04:02:46;;;;;;;0.70;0.50;;;15.10;77.10;;;;;;4973376;28;20993;-68
2022/05/27 04:05:17;;;;;;;0.70;0.60;;;15.20;76.70;;;;;;4973722;28;20453;-69
2022/05/27 04:07:44;;;;;;;0.70;0.60;;;15.30;76.60;;;;;;4974050;28;20439;-69
2022/05/27 04:10:11;;;;;;;0.70;0.60;;;15.20;76.70;;;;;;4973410;28;21004;-69
2022/05/27 04:12:47;;;;;;;0.73;0.60;;;15.30;76.70;;;;;;4973330;28;20985;-69
2022/05/27 04:15:13;;;;;;;0.70;0.60;;;15.30;76.50;;;;;;4974262;28;20804;-69
2022/05/27 04:17:42;;;;;;;0.70;0.60;;;15.30;76.50;;;;;;4973342;28;20985;-68
2022/05/27 04:20:12;;;;;;;0.70;0.53;;;15.40;76.30;;;;;;4974391;28;20445;-69
2022/05/27 04:22:41;;;;;;;0.70;0.50;;;15.60;76.10;;;;;;4973677;28;20470;-68
2022/05/27 04:25:09;;;;;;;0.70;0.60;;;15.70;75.90;;;;;;4973781;28;20458;-68
2022/05/27 04:27:37;;;;;;;0.80;0.60;;;15.80;75.80;;;;;;4973663;28;20450;-69
2022/05/27 04:30:06;;;;;;;0.63;0.60;;;15.90;75.60;;;;;;4973633;28;20501;-69
2022/05/27 04:32:33;;;;;;;0.67;0.57;;;15.80;75.30;;;;;;4973166;28;20982;-68
2022/05/27 04:35:00;;;;;;;0.70;0.60;;;15.60;75.80;;;;;;4973140;28;20454;-69
2022/05/27 04:37:26;;;;;;;0.70;0.60;;;15.40;76.70;;;;;;4973344;28;20536;-68
2022/05/27 04:39:54;;;;;;;0.70;0.60;;;15.20;77.40;;;;;;4973434;28;20446;-69
2022/05/27 04:42:21;;;;;;;0.70;0.60;;;15.10;77.80;;;;;;4973352;28;20473;-68
2022/05/27 04:44:48;;;;;;;0.70;0.60;;;15.10;77.60;;;;;;4973628;28;20892;-69
2022/05/27 04:47:14;;;;;;;0.70;0.60;;;15.20;77.80;;;;;;4973450;28;20501;-69
2022/05/27 04:49:54;;;;;;;0.70;0.60;;;15.10;77.70;;;;;;4973315;28;20512;-69
2022/05/27 04:52:23;;;;;;;0.70;0.60;;;15.00;78.50;;;;;;4973234;28;20529;-69
2022/05/27 04:54:49;;;;;;;0.70;0.60;;;14.90;78.30;;;;;;4972986;28;20454;-68
2022/05/27 04:57:21;;;;;;;0.70;0.60;;;14.90;79.10;;;;;;4977010;28;20528;-68
2022/05/27 04:59:49;;;;;;;0.70;0.57;;;15.00;79.00;;;;;;4977288;28;20469;-69
2022/05/27 05:02:17;;;;;;;0.70;0.60;;;15.10;78.60;;;;;;4976503;28;20486;-68
2022/05/27 05:04:44;;;;;;;0.70;0.60;;;15.20;78.30;;;;;;4976772;28;20492;-68
2022/05/27 05:07:11;;;;;;;1.00;0.70;;;15.40;77.80;;;;;;4976682;28;20504;-68
2022/05/27 05:09:41;;;;;;;0.70;0.60;;;15.60;77.00;;;;;;4976701;28;20457;-68
2022/05/27 05:12:09;;;;;;;0.70;0.60;;;15.80;76.30;;;;;;4976524;28;20823;-69
2022/05/27 05:14:37;;;;;;;0.80;0.77;;;15.80;76.40;;;;;;4976302;28;21012;-69
2022/05/27 05:17:04;;;;;;;0.70;0.60;;;15.90;76.90;;;;;;4976411;28;20499;-68
2022/05/27 05:19:31;;;;;;;1.40;0.60;;;16.00;76.10;;;;;;4976114;28;21000;-68
2022/05/27 05:21:57;;;;;;;0.70;0.60;;;16.10;75.60;;;;;;4975971;28;20849;-69
2022/05/27 05:24:24;;;;;;;0.80;0.70;;;16.10;76.10;;;;;;4976049;28;20466;-68
2022/05/27 05:26:52;;;;;;;0.90;0.63;;;16.20;75.60;;;;;;4976373;28;20457;-68
2022/05/27 05:29:18;;;;;;;0.70;0.60;;;16.40;75.10;;;;;;4975866;28;20940;-69
2022/05/27 05:31:46;;;;;;;0.70;0.60;;;16.60;75.10;;;;;;4975856;28;20875;-69
2022/05/27 05:34:13;;;;;;;0.70;0.70;;;16.70;74.40;;;;;;4976117;28;20450;-68
2022/05/27 05:36:40;;;;;;;0.70;0.60;;;16.70;74.40;;;;;;4975833;28;20478;-69
2022/05/27 05:39:07;;;;;;;0.70;0.53;;;16.70;75.30;;;;;;4975987;28;20872;-68
2022/05/27 05:41:36;;;;;;;0.70;0.60;;;16.80;75.10;;;;;;4975888;28;20480;-69
2022/05/27 05:44:04;;;;;;;0.70;0.60;;;16.90;75.10;;;;;;4975578;28;20940;-68
2022/05/27 05:46:33;;;;;;;0.70;0.60;;;17.00;74.40;;;;;;4975663;28;20440;-69
2022/05/27 05:49:01;;;;;;;0.70;0.60;;;16.90;75.00;;;;;;4975766;28;20509;-69
2022/05/27 05:51:28;;;;;;;0.80;0.60;;;16.90;75.00;;;;;;4976135;28;20470;-69
2022/05/27 05:53:55;;;;;;;0.70;0.60;;;16.90;74.40;;;;;;4975858;28;20449;-69
2022/05/27 05:56:21;;;;;;;0.97;0.70;;;17.00;74.50;;;;;;4975746;28;20589;-68
2022/05/27 05:58:49;;;;;;;1.10;0.77;;;17.10;74.30;;;;;;4975329;28;21001;-70
2022/05/27 06:01:16;;;;;;;0.70;0.60;;;17.30;74.40;;;;;;4975424;28;20500;-68
2022/05/27 06:03:43;;;;;;;0.70;0.57;;;17.10;73.90;;;;;;4975703;28;20600;-68
2022/05/27 06:06:11;;;;;;;1.33;0.60;;;17.00;74.40;;;;;;4975436;28;20887;-69
2022/05/27 06:08:38;;;;;;;0.70;0.60;;;16.90;74.80;;;;;;4974446;28;20442;-68
2022/05/27 06:11:07;;;;;;;2.20;0.60;;;16.90;74.90;;;;;;4975556;28;20554;-69
2022/05/27 06:13:35;;;;;;;0.70;0.60;;;16.80;75.10;;;;;;4975482;28;20446;-68
2022/05/27 06:16:02;;;;;;;0.80;0.70;;;17.00;75.20;;;;;;4975213;28;20532;-69
2022/05/27 06:18:29;;;;;;;1.43;0.60;;;17.10;75.00;;;;;;4975079;28;20498;-68
2022/05/27 06:20:56;;;;;;;0.70;0.60;;;16.90;75.20;;;;;;4975347;28;20470;-68
2022/05/27 06:23:27;;;;;;;1.00;0.60;;;17.10;75.60;;;;;;4975212;28;20501;-68
2022/05/27 06:25:55;;;;;;;0.70;0.60;;;17.10;75.20;;;;;;4975195;28;20525;-68
2022/05/27 06:36:35;;;;;;;0.70;0.60;;;17.20;75.00;;;;;;4975062;28;20469;-69
2022/05/27 06:39:03;;;;;;;0.70;0.60;;;17.30;74.90;;;;;;4975073;28;20520;-69
2022/05/27 06:41:30;;;;;;;0.70;0.70;;;17.20;74.60;;;;;;4974615;28;20524;-68
2022/05/27 06:43:57;;;;;;;0.70;0.60;;;17.20;74.70;;;;;;4975003;28;20520;-69
2022/05/27 06:46:24;;;;;;;0.70;0.60;;;17.20;75.10;;;;;;4974663;28;21012;-69
2022/05/27 06:48:50;;;;;;;0.70;0.63;;;17.40;74.50;;;;;;4974932;28;20450;-68
2022/05/27 06:51:18;;;;;;;0.80;0.60;;;17.60;74.40;;;;;;4974926;28;20470;-69
2022/05/27 06:53:45;;;;;;;0.70;0.60;;;17.70;74.00;;;;;;4975336;28;20454;-69
2022/05/27 06:56:14;;;;;;;0.73;0.73;;;17.80;73.40;;;;;;4974824;28;20453;-68
2022/05/27 06:58:41;;;;;;;0.60;0.60;;;17.90;73.50;;;;;;4974293;28;20540;-69
2022/05/27 07:01:08;;;;;;;0.67;0.60;;;17.80;72.90;;;;;;4974393;28;20544;-69
2022/05/27 07:03:37;;;;;;;0.73;0.60;;;17.80;73.40;;;;;;4974743;28;20832;-68
2022/05/27 07:06:04;;;;;;;0.70;0.60;;;17.60;73.50;;;;;;4974544;28;20581;-69
2022/05/27 07:08:31;;;;;;;1.30;0.60;;;17.60;74.00;;;;;;4974596;28;20450;-68
2022/05/27 07:10:57;;;;;;;0.70;0.60;;;17.70;74.20;;;;;;4974334;28;20540;-69
2022/05/27 07:13:25;;;;;;;0.70;0.60;;;17.90;74.10;;;;;;4974447;28;20449;-69
2022/05/27 07:15:52;;;;;;;0.60;0.50;;;17.90;73.50;;;;;;4974047;28;20458;-69
2022/05/27 07:18:19;;;;;;;0.70;0.60;;;17.90;73.30;;;;;;4974042;28;20474;-69
2022/05/27 07:20:46;;;;;;;0.70;0.60;;;17.90;73.20;;;;;;4973983;28;20858;-69
2022/05/27 07:23:13;;;;;;;0.70;0.60;;;17.90;73.10;;;;;;4974329;28;20461;-69
2022/05/27 07:25:40;;;;;;;0.70;0.60;;;17.80;73.70;;;;;;4974001;28;20816;-69
2022/05/27 07:28:08;;;;;;;0.63;0.60;;;17.80;73.50;;;;;;4974262;28;20538;-69
2022/05/27 07:30:36;;;;;;;0.80;0.70;;;17.80;73.60;;;;;;4974134;28;20446;-69
2022/05/27 07:33:03;;;;;;;0.67;0.67;;;17.90;73.40;;;;;;4974431;28;20512;-69
2022/05/27 07:35:30;;;;;;;0.70;0.60;;;18.00;73.20;;;;;;4974207;28;20489;-69
2022/05/27 07:37:56;;;;;;;0.80;0.60;;;18.00;72.80;;;;;;4974083;28;20478;-69
2022/05/27 07:40:23;;;;;;;0.70;0.70;;;18.10;72.90;;;;;;4973940;28;20450;-70
2022/05/27 07:42:50;;;;;;;0.70;0.70;;;18.10;72.30;;;;;;4974057;28;20453;-69
2022/05/27 07:45:21;;;;;;;0.70;0.60;;;17.90;73.10;;;;;;4974089;28;20453;-69
2022/05/27 07:47:49;;;;;;;0.97;0.80;;;17.80;73.30;;;;;;4974129;28;20536;-68
2022/05/27 07:50:16;;;;;;;1.03;0.70;;;17.90;73.30;;;;;;4973873;28;20442;-69
2022/05/27 07:52:43;;;;;;;0.90;0.90;;;17.90;73.00;;;;;;4973870;28;20469;-69
2022/05/27 07:55:10;;;;;;;1.30;0.70;;;17.90;72.70;;;;;;4973397;28;20872;-69
2022/05/27 07:57:42;;;;;;;0.67;0.50;;;17.70;73.50;;;;;;4973596;28;20489;-69
2022/05/27 08:00:12;;;;;;;0.70;0.60;;;17.90;73.10;;;;;;4973705;28;20438;-70
2022/05/27 08:02:39;;;;;;;0.77;0.60;;;18.00;73.20;;;;;;4973448;28;20485;-69
2022/05/27 08:05:09;;;;;;;1.30;0.70;;;18.20;72.50;;;;;;4973825;28;20457;-69
2022/05/27 08:07:36;;;;;;;0.80;0.67;;;18.40;72.40;;;;;;4973956;28;20902;-69
2022/05/27 08:10:04;;;;;;;0.77;0.70;;;18.60;71.40;;;;;;4973704;28;20945;-69
2022/05/27 08:12:31;;;;;;;0.80;0.67;;;18.60;71.50;;;;;;4973945;28;20841;-68
2022/05/27 08:14:58;;;;;;;0.70;0.60;;;18.60;71.50;;;;;;4973660;28;20446;-69
2022/05/27 08:17:24;;;;;;;0.73;0.60;;;18.60;70.90;;;;;;4973453;28;20900;-69
2022/05/27 08:19:52;;;;;;;0.90;0.70;;;18.60;70.90;;;;;;4973591;28;20505;-69
2022/05/27 08:22:20;;;;;;;0.60;0.60;;;18.80;70.80;;;;;;4973722;28;20581;-69
2022/05/27 08:24:47;;;;;;;0.70;0.70;;;18.90;70.20;;;;;;4973613;28;20539;-69
2022/05/27 08:27:14;;;;;;;0.70;0.67;;;18.70;70.00;;;;;;4973518;28;20575;-69
2022/05/27 08:29:41;;;;;;;0.70;0.70;;;18.70;70.40;;;;;;4973593;28;20560;-69
2022/05/27 08:32:08;;;;;;;0.70;0.60;;;18.90;70.40;;;;;;4977211;28;20598;-69
2022/05/27 08:40:14;;;;;;;1.13;0.60;;;19.10;69.50;;;;;;4977209;28;20413;-69
2022/05/27 08:42:51;;;;;;;0.90;0.60;;;18.90;69.70;;;;;;4977272;28;20469;-69
2022/05/27 08:45:22;;;;;;;0.70;0.60;;;18.70;69.40;;;;;;4977517;28;20441;-69
2022/05/27 08:47:53;;;;;;;0.77;0.53;;;18.50;70.30;;;;;;4977250;28;20516;-69
2022/05/27 08:50:25;;;;;;;0.63;0.60;;;18.60;70.60;;;;;;4977327;28;20434;-70
2022/05/27 08:52:57;;;;;;;0.63;0.50;;;18.70;70.60;;;;;;4977120;28;20493;-69
2022/05/27 09:01:12;;;;;;;0.70;0.60;;;18.50;70.70;;;;;;4976484;28;20472;-70
2022/05/27 09:03:44;;;;;;;0.80;0.70;;;18.60;71.00;;;;;;4976832;28;20847;-68
2022/05/27 09:06:12;;;;;;;0.80;0.60;;;18.40;70.70;;;;;;4976694;28;20492;-68
2022/05/27 09:08:41;;;;;;;0.67;0.63;;;18.50;70.90;;;;;;4976387;28;20448;-69
2022/05/27 09:11:19;;;;;;;0.67;0.60;;;18.60;70.30;;;;;;4976570;28;20474;-68
2022/05/27 09:13:52;;;;;;;0.70;0.60;;;18.60;70.80;;;;;;4977315;28;20444;-68
2022/05/27 09:16:26;;;;;;;0.60;0.57;;;18.80;70.30;;;;;;4976445;28;20485;-69
2022/05/27 09:19:00;;;;;;;0.70;0.60;;;18.80;70.10;;;;;;4976429;28;20524;-68
2022/05/27 09:21:34;;;;;;;0.70;0.70;;;19.00;69.20;;;;;;4976419;28;20469;-68
2022/05/27 09:24:16;;;;;;;0.80;0.60;;;18.90;69.50;;;;;;4976513;28;20489;-69
2022/05/27 09:26:46;;;;;;;0.70;0.60;;;18.90;68.90;;;;;;4977154;28;20592;-69
2022/05/27 09:29:26;;;;;;;0.60;0.60;;;19.00;69.90;;;;;;4976429;28;20435;-68
2022/05/27 09:31:58;;;;;;;0.70;0.60;;;19.10;69.30;;;;;;4976269;28;20473;-69
2022/05/27 09:34:31;;;;;;;0.80;0.60;;;19.20;68.00;;;;;;4976226;28;20434;-68
2022/05/27 09:37:01;;;;;;;0.70;0.60;;;19.40;68.70;;;;;;4976344;28;20438;-69
2022/05/27 09:39:29;;;;;;;0.70;0.50;;;19.40;67.20;;;;;;4976113;28;20482;-69
2022/05/27 09:42:03;;;;;;;0.60;0.50;;;19.30;65.70;;;;;;4975704;28;20517;-69
2022/05/27 09:44:36;;;;;;;0.60;0.50;;;19.40;66.20;;;;;;4975940;28;20853;-69
2022/05/27 09:47:04;;;;;;;0.60;0.50;;;19.50;66.40;;;;;;4976182;28;20462;-69
2022/05/27 09:49:32;;;;;;;0.70;0.60;;;19.60;65.80;;;;;;4976150;28;20508;-69
2022/05/27 09:51:59;;;;;;;0.70;0.60;;;19.50;66.10;;;;;;4975864;28;20789;-69
2022/05/27 09:54:35;;;;;;;0.70;0.60;;;19.50;65.80;;;;;;4975886;28;20454;-69
2022/05/27 09:57:04;;;;;;;0.70;0.60;;;19.90;65.10;;;;;;4975941;28;20441;-69
2022/05/27 09:59:39;;;;;;;0.70;0.60;;;19.90;64.50;;;;;;4975485;28;20907;-69
2022/05/27 10:02:18;;;;;;;0.80;0.60;;;20.10;63.80;;;;;;4975427;28;21008;-69
2022/05/27 10:04:58;;;;;;;0.70;0.63;;;20.30;63.70;;;;;;4975926;28;20434;-69
2022/05/27 10:07:31;;;;;;;0.70;0.50;;;20.40;64.10;;;;;;4976112;28;20496;-69
2022/05/27 10:10:20;;;;;;;0.60;0.53;;;20.50;62.30;;;;;;4975862;28;20441;-69
2022/05/27 10:12:48;;;;;;;0.70;0.60;;;20.60;61.60;;;;;;4975764;28;20466;-69
2022/05/27 10:15:33;;;;;;;0.63;0.50;;;20.70;60.70;;;;;;4975539;28;20937;-69
2022/05/27 10:18:18;;;;;;;0.60;0.50;;;20.70;60.30;;;;;;4975568;28;20470;-69
2022/05/27 10:20:51;;;;;;;0.60;0.50;;;20.70;61.20;;;;;;4975216;28;20916;-69
2022/05/27 10:23:24;;;;;;;0.90;0.60;;;20.80;59.60;;;;;;4975726;28;20529;-69
2022/05/27 10:25:52;;;;;;;0.70;0.60;;;21.00;60.60;;;;;;4976085;28;20534;-69
2022/05/27 10:28:29;;;;;;;0.70;0.60;;;21.00;58.80;;;;;;4976082;28;20790;-69
2022/05/27 10:30:58;;;;;;;0.70;0.50;;;20.90;58.10;;;;;;4975581;28;20478;-68
2022/05/27 10:33:38;;;;;;;0.70;0.60;;;20.80;59.00;;;;;;4975452;28;20556;-70
2022/05/27 10:36:29;;;;;;;0.83;0.60;;;20.70;59.70;;;;;;4975462;28;20485;-69
2022/05/27 10:39:02;;;;;;;0.70;0.70;;;20.90;60.60;;;;;;4975485;28;20818;-69
2022/05/27 10:41:46;;;;;;;0.60;0.50;;;21.00;59.20;;;;;;4975366;28;20473;-69
2022/05/27 10:44:19;;;;;;;0.70;0.50;;;21.00;58.60;;;;;;4974928;28;20866;-69
2022/05/27 10:46:51;;;;;;;0.63;0.50;;;21.20;57.70;;;;;;4975191;28;20843;-69
2022/05/27 10:49:33;;;;;;;0.60;0.50;;;21.30;58.60;;;;;;4974900;28;20781;-69
2022/05/27 10:52:15;;;;;;;0.70;0.60;;;21.40;57.70;;;;;;4975137;28;20470;-70
2022/05/27 10:54:55;;;;;;;0.67;0.60;;;21.30;58.10;;;;;;4975236;28;20444;-69
2022/05/27 11:03:38;;;;;;;0.60;0.50;;;21.90;56.80;;;;;;4974923;28;20413;-69
2022/05/27 11:06:32;;;;;;;0.70;0.60;;;22.00;55.20;;;;;;4974307;28;20910;-69
2022/05/27 11:09:13;;;;;;;0.70;0.50;;;21.90;55.50;;;;;;4976244;28;20433;-70
2022/05/27 11:11:46;;;;;;;0.70;0.60;;;22.10;56.60;;;;;;4975558;28;20883;-70
2022/05/27 11:17:29;;;;;;;0.70;0.60;;;21.60;55.20;;;;;;4975509;28;20413;-70
2022/05/27 11:20:35;;;;;;;0.70;0.50;;;21.90;55.70;;;;;;4975559;28;20469;-70
2022/05/27 11:23:13;;;;;;;0.60;0.50;;;22.10;56.00;;;;;;4958193;28;20464;-70
2022/05/27 11:25:54;;;;;;;0.70;0.60;;;21.90;54.90;;;;;;4975544;28;20430;-70
2022/05/27 11:29:03;;;;;;;0.67;0.50;;;21.80;56.00;;;;;;4976016;28;20419;-70
2022/05/27 11:31:40;;;;;;;0.60;0.50;;;21.90;57.30;;;;;;4937955;28;20559;-70
2022/05/27 11:34:20;;;;;;;0.60;0.50;;;21.80;56.90;;;;;;4975795;28;20464;-70
2022/05/27 11:37:20;;;;;;;0.80;0.60;;;21.80;56.60;;;;;;4974294;28;20430;-69
2022/05/27 11:40:09;;;;;;;0.70;0.60;;;21.60;57.40;;;;;;4950330;28;20489;-69
2022/05/27 11:42:52;;;;;;;0.70;0.60;;;21.90;56.90;;;;;;4973887;28;20850;-69
2022/05/27 11:45:21;;;;;;;0.80;0.60;;;22.10;56.80;;;;;;4974231;28;20489;-68
2022/05/27 11:48:01;;;;;;;0.70;0.50;;;22.20;56.70;;;;;;4973978;28;20533;-69
2022/05/27 11:50:51;;;;;;;0.70;0.50;;;22.00;56.00;;;;;;4973877;28;20474;-70
2022/05/27 11:53:31;;;;;;;0.60;0.50;;;21.50;58.80;;;;;;4974217;28;20464;-69
2022/05/27 11:56:09;;;;;;;0.60;0.50;;;21.20;58.90;;;;;;4974623;28;20438;-70
2022/05/27 11:58:45;;;;;;;0.60;0.50;;;21.00;59.00;;;;;;4975094;28;20837;-69
2022/05/27 12:01:31;;;;;;;0.70;0.60;;;20.60;59.20;;;;;;4974788;28;20919;-70
2022/05/27 12:04:07;;;;;;;0.70;0.60;;;20.30;60.10;;;;;;4975518;28;20450;-69
2022/05/27 12:06:39;;;;;;;0.70;0.60;;;20.40;60.70;;;;;;4974515;28;20465;-70
2022/05/27 12:09:09;;;;;;;0.70;0.60;;;20.40;60.70;;;;;;4975119;28;20426;-71
2022/05/27 12:11:40;;;;;;;0.70;0.60;;;20.30;61.20;;;;;;4974839;28;20477;-70
2022/05/27 12:14:13;;;;;;;0.80;0.60;;;20.10;61.20;;;;;;4974966;28;20529;-70
2022/05/27 12:16:43;;;;;;;0.60;0.50;;;19.90;63.30;;;;;;4975634;28;20512;-70
2022/05/27 12:19:18;;;;;;;0.70;0.60;;;20.10;61.70;;;;;;4973869;28;20482;-69
2022/05/27 12:21:48;;;;;;;0.60;0.57;;;20.10;63.00;;;;;;4973940;28;20559;-69
2022/05/27 12:24:22;;;;;;;0.70;0.60;;;20.30;62.00;;;;;;4973868;28;20446;-70
2022/05/27 12:26:52;;;;;;;0.60;0.50;;;20.70;62.30;;;;;;4973846;28;20434;-69
2022/05/27 12:29:21;;;;;;;0.70;0.50;;;20.90;62.10;;;;;;4973615;28;20493;-69
2022/05/27 12:31:49;;;;;;;1.00;0.90;;;21.20;60.40;;;;;;4973328;28;20482;-69
2022/05/27 12:34:37;;;;;;;0.60;0.50;;;21.30;60.40;;;;;;4973190;28;20946;-68
2022/05/27 12:37:18;;;;;;;0.60;0.50;;;21.40;59.50;;;;;;4973321;28;20457;-69
2022/05/27 12:39:47;;;;;;;0.60;0.50;;;21.30;60.20;;;;;;4973233;28;20481;-70
2022/05/27 12:42:18;;;;;;;0.60;0.50;;;21.50;60.10;;;;;;4973808;28;20470;-70
2022/05/27 12:44:46;;;;;;;0.60;0.50;;;21.50;59.50;;;;;;4973682;28;20510;-69
2022/05/27 12:47:18;;;;;;;0.70;0.50;;;21.60;59.30;;;;;;4973675;28;20454;-69
2022/05/27 12:49:48;;;;;;;0.60;0.50;;;21.50;59.00;;;;;;4973730;28;20485;-69
2022/05/27 12:52:42;;;;;;;0.70;0.60;;;21.50;60.00;;;;;;4973253;28;20512;-69
2022/05/27 12:55:13;;;;;;;0.60;0.50;;;21.70;60.30;;;;;;4973361;28;20465;-69
2022/05/27 13:00:58;;;;;;;0.70;0.60;;;21.60;58.50;;;;;;4973192;28;20966;-69
2022/05/27 13:03:48;;;;;;;0.70;0.50;;;21.70;60.70;;;;;;4973334;28;20438;-69
2022/05/27 13:06:37;;;;;;;0.70;0.60;;;21.80;59.60;;;;;;4973327;28;20529;-69
2022/05/27 13:09:06;;;;;;;0.70;0.60;;;21.80;60.10;;;;;;4973290;28;20458;-69
2022/05/27 13:11:46;;;;;;;0.70;0.60;;;22.00;58.30;;;;;;4973939;28;20466;-69
2022/05/27 13:14:19;;;;;;;0.90;0.50;;;22.10;58.30;;;;;;4973124;28;20426;-69
2022/05/27 13:16:49;;;;;;;0.70;0.50;;;22.20;58.20;;;;;;4974525;28;20472;-69
2022/05/27 13:19:30;;;;;;;0.70;0.57;;;22.20;57.90;;;;;;4977299;28;20509;-69
2022/05/27 13:22:00;;;;;;;0.70;0.60;;;22.20;58.20;;;;;;4976899;28;20560;-70
2022/05/27 13:24:38;;;;;;;0.60;0.60;;;22.10;57.80;;;;;;4976770;28;20553;-69
2022/05/27 13:27:23;;;;;;;1.07;0.60;;;21.90;58.80;;;;;;4977381;28;20487;-69
2022/05/27 13:30:01;;;;;;;0.60;0.50;;;21.90;59.60;;;;;;4976713;28;20434;-69
2022/05/27 13:32:29;;;;;;;0.60;0.50;;;21.60;59.40;;;;;;4976498;28;20565;-70
2022/05/27 13:34:58;;;;;;;0.70;0.60;;;21.50;59.90;;;;;;4976580;28;20519;-69
2022/05/27 13:37:34;;;;;;;0.60;0.50;;;21.50;60.50;;;;;;4976494;28;20509;-69
2022/05/27 13:40:04;;;;;;;0.80;0.50;;;21.70;60.20;;;;;;4976159;28;20993;-68
2022/05/27 13:42:34;;;;;;;0.60;0.50;;;21.60;59.90;;;;;;4976307;28;20561;-69
2022/05/27 13:45:11;;;;;;;0.63;0.50;;;21.50;60.20;;;;;;4976244;28;20500;-69
2022/05/27 13:47:44;;;;;;;0.60;0.50;;;21.40;60.70;;;;;;4976099;28;20481;-69
2022/05/27 13:50:33;;;;;;;0.70;0.50;;;21.50;61.00;;;;;;4976050;28;20448;-69
2022/05/27 13:53:19;;;;;;;0.60;0.50;;;21.70;60.70;;;;;;4975980;28;20467;-69
2022/05/27 13:55:47;;;;;;;0.60;0.50;;;21.40;60.40;;;;;;4975886;28;20793;-69
2022/05/27 13:58:16;;;;;;;0.70;0.50;;;21.20;60.80;;;;;;4975683;28;20823;-69
2022/05/27 14:00:45;;;;;;;0.63;0.50;;;21.10;61.30;;;;;;4975624;28;20486;-69
2022/05/27 14:03:25;;;;;;;0.70;0.60;;;21.00;62.10;;;;;;4975805;28;20450;-69
2022/05/27 14:05:58;;;;;;;0.60;0.50;;;21.00;62.00;;;;;;4975765;28;20497;-69
2022/05/27 14:08:35;;;;;;;0.70;0.50;;;21.10;61.30;;;;;;4975551;28;20525;-69
2022/05/27 14:11:07;;;;;;;0.60;0.50;;;21.10;61.20;;;;;;4975721;28;20556;-69
2022/05/27 14:13:34;;;;;;;0.70;0.50;;;21.10;61.30;;;;;;4975366;28;20892;-69
2022/05/27 14:16:01;;;;;;;0.70;0.60;;;21.00;61.40;;;;;;4975186;28;20929;-69
2022/05/27 14:18:30;;;;;;;0.67;0.50;;;20.90;61.40;;;;;;4976123;28;20446;-70
2022/05/27 14:24:01;;;;;;;0.60;0.50;;;20.60;62.20;;;;;;4935580;29;20490;-70
2022/05/27 14:26:35;;;;;;;0.60;0.50;;;20.70;62.60;;;;;;4936308;29;20448;-69
2022/05/27 14:29:02;;;;;;;0.70;0.53;;;20.70;62.70;;;;;;4955003;28;20454;-70
2022/05/27 14:31:31;;;;;;;0.70;0.60;;;20.80;62.90;;;;;;4976499;28;20481;-70
2022/05/27 14:34:00;;;;;;;0.67;0.50;;;20.80;62.60;;;;;;4976671;28;20454;-70
2022/05/27 14:36:30;;;;;;;0.70;0.50;;;20.80;62.10;;;;;;4976519;28;20465;-70
2022/05/27 14:39:01;;;;;;;0.60;0.50;;;20.90;62.00;;;;;;4977205;28;20838;-70
2022/05/27 14:41:32;;;;;;;0.60;0.60;;;21.00;62.40;;;;;;4976369;28;21046;-69
2022/05/27 14:44:01;;;;;;;0.60;0.50;;;21.30;61.70;;;;;;4976561;28;20438;-70
2022/05/27 14:46:30;;;;;;;0.80;0.53;;;21.50;61.50;;;;;;4976004;28;20505;-70
2022/05/27 14:48:58;;;;;;;0.60;0.50;;;21.90;62.20;;;;;;4975651;28;20458;-70
2022/05/27 14:51:32;;;;;;;0.70;0.60;;;22.10;61.00;;;;;;4976213;28;20826;-70
2022/05/27 14:54:18;;;;;;;0.70;0.50;;;22.10;59.30;;;;;;4975822;28;20430;-70
2022/05/27 14:56:45;;;;;;;0.60;0.60;;;21.90;60.00;;;;;;4975022;28;20430;-69
2022/05/27 14:59:18;;;;;;;0.60;0.50;;;21.80;60.10;;;;;;4975281;28;20564;-69
2022/05/27 15:01:52;;;;;;;0.60;0.50;;;21.50;60.80;;;;;;4974724;28;20489;-69
2022/05/27 15:04:27;;;;;;;0.70;0.50;;;21.50;61.50;;;;;;4975068;28;20477;-69
2022/05/27 15:06:55;;;;;;;0.70;0.60;;;21.30;61.90;;;;;;4974649;28;20433;-69
2022/05/27 15:09:25;;;;;;;0.87;0.60;;;21.40;62.00;;;;;;4974436;28;20446;-69
2022/05/27 15:11:52;;;;;;;0.70;0.63;;;21.30;61.10;;;;;;4974436;28;20470;-69
2022/05/27 15:14:28;;;;;;;0.60;0.50;;;21.10;61.50;;;;;;4975149;28;20533;-70
2022/05/27 15:16:58;;;;;;;0.70;0.50;;;21.00;62.10;;;;;;4974399;28;20468;-69
2022/05/27 15:19:26;;;;;;;0.70;0.50;;;20.90;62.30;;;;;;4974052;28;20946;-69
2022/05/27 15:22:02;;;;;;;0.60;0.50;;;20.80;62.90;;;;;;4974305;28;20524;-69
2022/05/27 15:24:37;;;;;;;0.60;0.50;;;20.80;62.90;;;;;;4974735;28;20440;-69
2022/05/27 15:35:32;;;;;;;0.60;0.50;;;20.50;63.90;;;;;;4974064;28;20456;-69
2022/05/27 15:37:59;;;;;;;0.60;0.50;;;20.60;63.80;;;;;;4973922;28;20553;-69
2022/05/27 15:40:28;;;;;;;0.63;0.57;;;20.50;64.60;;;;;;4973843;28;20516;-70
2022/05/27 15:42:55;;;;;;;0.60;0.50;;;20.50;64.60;;;;;;4973978;28;20450;-69
2022/05/27 15:45:23;;;;;;;0.60;0.50;;;20.60;64.30;;;;;;4973953;28;20512;-69
2022/05/27 15:47:50;;;;;;;0.60;0.50;;;20.50;63.90;;;;;;4973537;28;20965;-69
2022/05/27 15:50:18;;;;;;;0.70;0.50;;;20.50;64.80;;;;;;4973565;28;20997;-69
2022/05/27 15:52:45;;;;;;;0.90;0.50;;;20.60;63.80;;;;;;4973679;28;20482;-69
2022/05/27 15:55:13;;;;;;;0.90;0.50;;;20.50;64.30;;;;;;4973779;28;21038;-69
2022/05/27 15:57:42;;;;;;;0.80;0.50;;;20.60;63.70;;;;;;4973438;28;20918;-68
2022/05/27 16:00:11;;;;;;;0.60;0.47;;;20.80;62.90;;;;;;4973337;28;20942;-69
2022/05/27 16:02:38;;;;;;;0.60;0.50;;;20.80;62.20;;;;;;4973411;28;20486;-69
2022/05/27 16:05:05;;;;;;;0.60;0.50;;;20.80;62.10;;;;;;4973370;28;20968;-70
2022/05/27 16:07:32;;;;;;;0.60;0.50;;;20.80;62.10;;;;;;4973652;28;20630;-68
2022/05/27 16:09:59;;;;;;;0.60;0.50;;;20.60;62.70;;;;;;4973726;28;20520;-69
2022/05/27 16:12:25;;;;;;;0.63;0.50;;;20.70;62.80;;;;;;4973381;28;20470;-68
2022/05/27 16:14:53;;;;;;;0.70;0.50;;;20.70;63.10;;;;;;4973752;28;20453;-69
2022/05/27 16:20:05;;;;;;;0.83;0.50;;;20.80;62.90;;;;;;4973899;28;20501;-69
2022/05/27 16:22:34;;;;;;;0.70;0.60;;;20.80;62.40;;;;;;4973516;28;20918;-69
2022/05/27 16:25:01;;;;;;;0.60;0.50;;;20.90;62.90;;;;;;4973559;28;20561;-69
2022/05/27 16:27:28;;;;;;;0.60;0.50;;;20.90;63.20;;;;;;4973554;28;20450;-69
2022/05/27 16:29:56;;;;;;;0.70;0.60;;;20.80;62.60;;;;;;4973564;28;20516;-68
2022/05/27 16:32:23;;;;;;;0.70;0.50;;;20.80;62.90;;;;;;4973513;28;20470;-69
2022/05/27 16:34:50;;;;;;;0.60;0.50;;;20.80;62.70;;;;;;4973446;28;20569;-69
2022/05/27 16:37:17;;;;;;;0.70;0.60;;;20.70;63.00;;;;;;4973531;28;20497;-69
2022/05/27 16:39:44;;;;;;;0.60;0.50;;;20.70;63.50;;;;;;4973044;28;21035;-69
2022/05/27 16:42:11;;;;;;;0.70;0.60;;;20.70;63.40;;;;;;4974043;28;20520;-70
2022/05/27 16:44:37;;;;;;;0.70;0.60;;;20.70;63.50;;;;;;4973322;28;20529;-70
2022/05/27 16:47:06;;;;;;;0.60;0.50;;;20.70;62.70;;;;;;4973392;28;20449;-69
2022/05/27 16:49:33;;;;;;;0.60;0.50;;;20.60;63.10;;;;;;4973717;28;20553;-69
2022/05/27 16:51:59;;;;;;;0.70;0.60;;;20.60;63.00;;;;;;4974967;28;20540;-69
2022/05/27 16:54:26;;;;;;;0.60;0.50;;;20.60;62.90;;;;;;4977762;28;20544;-69
2022/05/27 16:56:53;;;;;;;0.60;0.50;;;20.60;63.30;;;;;;4976649;28;20500;-68